Terminal Aerodrome Forecast
Issued by NWS

Home | Current Version | Previous Version | Text Only | Print | Product List | Glossary On
Versions: 1 2 3 4 5 6 7 8 9 10 11 12 13 14 15 16 17 18
542
FTUS45 KABQ 212340
TAFROW
TAF
KROW 212340Z 2200/2224 28011KT P6SM VCSH SCT070 BKN100
      TEMPO 2200/2202 28015G25KT
     FM220200 19009KT P6SM SCT100
     FM221700 36008KT P6SM SCT080=

USA.gov is the U.S. government's official web portal to all federal, state and local government web resources and services.